Latest Weather Observations for Bundaberg

IDQ60801

Issued at 6:02 am EST Tuesday 28 March 2017 (issued every 30 minutes, with the page automatically refreshed every 10 minutes)

About weather observations | Map of weather stations | Latest weather observations for QLD | Other Formats
Station Details ID: 039128 Name: BUNDABERG AERO Lat: -24.91 Lon: 152.32 Height: 30.82 m
Data from the previous 72 hours. | See also: Recent months at Bundaberg
Date/Time
EST
Temp
°C
App
Temp
°C
Dew
Point
°C
Rel
Hum
%
Delta-T
°C
Wind Press
QNH
hPa
Press
MSL
hPa
Rain since
9am
mm
Dir  Spd
km/h
Gust
km/h
Spd
kts
Gust
kts
28/05:30am 23.1 26.2 22.8 98 0.2 SSE 11 15 6 8 1011.2 1011.0 8.8
28/05:27am 23.1 26.2 22.8 98 0.2 SSE 11 15 6 8 1011.1 1010.9 8.8
28/05:00am 23.2 25.9 22.9 98 0.2 SE 13 19 7 10 1011.0 1010.8 8.8
28/04:53am 23.3 25.7 23.0 98 0.2 SE 15 19 8 10 1010.9 1010.7 8.8
28/04:47am 23.2 25.6 22.9 98 0.2 SE 15 19 8 10 1010.8 1010.6 8.8
28/04:30am 23.1 25.4 22.8 98 0.2 SE 15 19 8 10 1010.7 1010.5 8.8
28/04:22am 23.2 26.2 22.7 97 0.3 SE 11 17 6 9 1010.7 1010.5 7.2
28/04:18am 23.1 26.1 22.6 97 0.3 SE 11 17 6 9 1010.7 1010.5 6.8
28/04:00am 23.0 25.4 22.3 96 0.5 SSE 13 19 7 10 1010.5 1010.3 6.6
28/03:56am 23.0 25.4 22.3 96 0.5 SSE 13 17 7 9 1010.6 1010.4 6.6
28/03:45am 23.1 26.0 22.4 96 0.5 SSE 11 19 6 10 1010.6 1010.4 6.6
28/03:39am 23.1 26.0 22.4 96 0.5 SSE 11 19 6 10 1010.7 1010.5 6.6
28/03:30am 23.1 25.6 22.4 96 0.5 SSE 13 19 7 10 1010.8 1010.6 6.6
28/03:00am 23.3 25.5 22.6 96 0.5 SSE 15 20 8 11 1010.8 1010.6 6.6
28/02:48am 23.3 25.5 22.6 96 0.5 SSE 15 20 8 11 1010.8 1010.6 6.6
28/02:30am 23.4 24.7 22.7 96 0.5 SE 20 28 11 15 1011.0 1010.8 6.6
28/02:17am 23.5 25.1 22.8 96 0.5 SE 19 24 10 13 1011.2 1011.0 6.6
28/02:00am 23.4 24.8 22.6 95 0.5 SSE 19 24 10 13 1011.2 1011.0 6.6
28/01:30am 23.5 25.6 22.5 94 0.7 SSE 15 20 8 11 1011.7 1011.5 6.6
28/01:00am 23.5 24.8 22.3 93 0.8 SSE 19 28 10 15 1012.0 1011.8 6.6
28/12:30am 23.6 25.0 22.6 94 0.7 SSE 19 28 10 15 1012.3 1012.1 6.6
28/12:12am 23.7 25.2 23.0 96 0.5 SE 20 26 11 14 1012.4 1012.2 6.6
28/12:05am 23.6 25.2 22.9 96 0.5 SSE 19 26 10 14 1012.4 1012.2 6.4
28/12:00am 23.5 24.9 22.8 96 0.5 SE 20 26 11 14 1012.4 1012.2 6.4
 
Date/Time
EST
Temp
°C
App
Temp
°C
Dew
Point
°C
Rel
Hum
%
Delta-T
°C
Wind Press
QNH
hPa
Press
MSL
hPa
Rain since
9am
mm
Dir  Spd
km/h
Gust
km/h
Spd
kts
Gust
kts
27/11:40pm 23.7 24.7 22.9 95 0.5 SE 22 35 12 19 1012.7 1012.5 6.0
27/11:30pm 23.9 25.9 23.0 95 0.6 SSE 17 24 9 13 1012.6 1012.4 5.2
27/11:00pm 23.9 25.9 22.9 94 0.7 SE 17 20 9 11 1012.7 1012.5 5.2
27/10:30pm 24.0 26.1 23.1 95 0.6 SE 17 20 9 11 1013.0 1012.8 5.2
27/10:27pm 24.1 26.3 23.2 95 0.6 SE 17 20 9 11 1013.1 1012.9 5.2
27/10:11pm 24.1 27.0 23.2 95 0.6 SSE 13 19 7 10 1013.1 1012.9 5.2
27/10:00pm 24.0 26.0 23.0 94 0.7 ESE 17 22 9 12 1013.2 1013.0 5.0
27/09:50pm 24.0 25.9 22.8 93 0.8 ENE 17 22 9 12 1013.4 1013.2 3.8
27/09:45pm 24.1 26.1 22.9 93 0.8 ESE 17 22 9 12 1013.3 1013.1 3.0
27/09:30pm 24.4 26.7 22.8 91 1.1 SSE 15 20 8 11 1013.2 1013.0 2.8
27/09:00pm 24.1 26.6 23.1 94 0.7 SSE 15 20 8 11 1013.4 1013.2 2.8
27/08:55pm 24.2 26.4 23.3 95 0.6 SE 17 24 9 13 1013.4 1013.2 2.8
27/08:30pm 22.9 21.5 20.4 86 1.6 E 28 41 15 22 1013.5 1013.3 1.4
27/08:27pm 23.1 22.0 20.2 84 1.9 E 26 41 14 22 1013.5 1013.3 1.2
27/08:00pm 25.6 26.6 22.1 81 2.3 SE 20 26 11 14 1013.0 1012.8 0.0
27/07:30pm 25.8 27.0 22.1 80 2.5 SE 19 24 10 13 1012.6 1012.4 0.0
27/07:00pm 26.0 26.1 21.9 78 2.7 SE 24 35 13 19 1012.2 1012.0 0.0
27/06:30pm 26.1 26.1 21.7 77 2.9 SE 24 32 13 17 1011.9 1011.7 0.0
27/06:00pm 26.4 25.6 21.6 75 3.2 ESE 28 41 15 22 1011.7 1011.5 0.0
27/05:30pm 26.8 26.2 22.0 75 3.2 ESE 28 41 15 22 1011.4 1011.2 0.0
27/05:00pm 27.1 25.6 21.8 73 3.6 ESE 32 41 17 22 1010.9 1010.7 0.0
27/04:30pm 27.6 27.1 22.1 72 3.7 ESE 28 39 15 21 1010.7 1010.5 0.0
27/04:00pm 27.9 26.9 21.9 70 4.0 ESE 30 41 16 22 1010.6 1010.4 0.0
27/03:30pm 28.1 27.2 21.4 67 4.5 ESE 28 39 15 21 1010.7 1010.5 0.0
27/03:00pm 29.0 27.4 21.5 64 5.0 ESE 32 41 17 22 1010.8 1010.6 0.0
27/02:30pm 29.6 28.5 21.8 63 5.3 ESE 30 41 16 22 1010.9 1010.7 0.0
27/02:00pm 29.9 28.4 21.8 62 5.5 ESE 32 41 17 22 1011.1 1010.9 0.0
27/01:30pm 30.3 29.7 22.7 64 5.2 E 30 37 16 20 1011.3 1011.1 0.0
27/01:00pm 30.0 29.0 21.9 62 5.5 ESE 30 39 16 21 1011.6 1011.4 0.0
27/12:30pm 30.0 29.1 22.2 63 5.3 ESE 30 41 16 22 1012.1 1011.9 0.0
27/12:00pm 28.9 27.4 20.9 62 5.3 ESE 30 37 16 20 1012.6 1012.4 0.0
27/11:30am 29.8 29.4 22.3 64 5.1 ESE 28 41 15 22 1013.0 1012.8 0.0
27/11:00am 28.7 27.9 21.7 66 4.7 ESE 28 39 15 21 1013.5 1013.3 0.0
27/10:30am 28.7 28.5 22.7 70 4.1 ESE 28 37 15 20 1013.6 1013.4 0.0
27/10:00am 28.8 28.6 22.8 70 4.1 ESE 28 35 15 19 1013.8 1013.6 0.0
27/09:30am 28.6 28.1 22.1 68 4.4 ESE 28 37 15 20 1013.9 1013.7 0.0
27/09:00am 27.2 28.7 23.0 78 2.9 SE 20 28 11 15 1014.0 1013.8 0.0
27/08:30am 26.6 28.1 23.1 81 2.4 SE 20 28 11 15 1013.8 1013.6 0.0
27/08:00am 25.4 26.9 23.1 87 1.6 SSE 20 24 11 13 1013.7 1013.5 0.0
27/07:30am 24.3 26.8 23.1 93 0.8 SSE 15 20 8 11 1013.5 1013.3 0.0
27/07:00am 23.0 25.5 22.5 97 0.3 SSE 13 19 7 10 1013.3 1013.1 0.0
27/06:30am 22.6 24.7 22.4 99 0.1 SSE 15 19 8 10 1013.1 1012.9 0.0
27/06:00am 22.4 24.3 22.1 98 0.2 SSE 15 19 8 10 1012.8 1012.6 0.0
27/05:30am 22.3 24.6 22.1 99 0.1 SSE 13 19 7 10 1012.4 1012.2 0.0
27/05:00am 22.4 25.1 22.2 99 0.1 SSE 11 17 6 9 1012.1 1011.9 0.0
27/04:30am 22.4 24.7 22.1 98 0.2 SSE 13 19 7 10 1012.1 1011.9 0.0
27/04:00am 22.4 25.1 22.1 98 0.2 SSE 11 17 6 9 1011.9 1011.7 0.0
27/03:30am 22.4 24.7 22.1 98 0.2 SSE 13 17 7 9 1012.0 1011.8 0.0
27/03:00am 22.5 24.9 22.2 98 0.2 SSE 13 19 7 10 1012.2 1012.0 0.0
27/02:30am 22.5 25.2 22.2 98 0.2 SSE 11 15 6 8 1012.3 1012.1 0.0
27/02:00am 22.5 25.2 22.2 98 0.2 SSE 11 17 6 9 1012.5 1012.3 0.0
27/01:30am 22.5 25.5 22.0 97 0.3 SSE 9 13 5 7 1012.8 1012.6 0.0
27/01:00am 22.7 25.7 22.0 96 0.5 SSE 9 13 5 7 1013.1 1012.9 0.0
27/12:30am 22.9 25.3 22.2 96 0.5 SSE 13 17 7 9 1013.4 1013.2 0.0
27/12:00am 23.0 25.6 22.0 94 0.7 SSE 11 15 6 8 1013.8 1013.6 0.0
 
Date/Time
EST
Temp
°C
App
Temp
°C
Dew
Point
°C
Rel
Hum
%
Delta-T
°C
Wind Press
QNH
hPa
Press
MSL
hPa
Rain since
9am
mm
Dir  Spd
km/h
Gust
km/h
Spd
kts
Gust
kts
26/11:30pm 23.3 26.5 22.3 94 0.7 SSE 9 11 5 6 1014.1 1013.9 0.0
26/11:00pm 23.4 26.5 22.2 93 0.8 SSE 9 11 5 6 1014.3 1014.1 0.0
26/10:30pm 23.8 26.9 22.2 91 1.1 SSE 9 15 5 8 1014.4 1014.2 0.0
26/10:00pm 24.3 27.3 22.6 90 1.1 SSE 11 17 6 9 1014.7 1014.5 0.0
26/09:30pm 24.5 27.6 22.8 90 1.1 SE 11 15 6 8 1014.7 1014.5 0.0
26/09:00pm 24.1 27.4 22.5 91 1.1 SE 9 13 5 7 1014.5 1014.3 0.0
26/08:30pm 24.1 26.6 22.4 90 1.1 SE 13 15 7 8 1014.2 1014.0 0.0
26/08:00pm 24.3 26.7 22.2 88 1.4 SE 13 15 7 8 1013.9 1013.7 0.0
26/07:30pm 24.5 27.0 22.4 88 1.4 SE 13 15 7 8 1013.5 1013.3 0.0
26/07:00pm 24.8 27.1 22.1 85 1.8 SE 13 19 7 10 1013.0 1012.8 0.0
26/06:30pm 25.3 26.8 22.0 82 2.2 SE 17 20 9 11 1012.8 1012.6 0.0
26/06:00pm 25.8 27.4 22.1 80 2.5 ESE 17 22 9 12 1012.4 1012.2 0.0
26/05:30pm 26.4 27.3 22.0 77 2.9 SE 20 26 11 14 1012.0 1011.8 0.0
26/05:00pm 26.9 27.8 21.9 74 3.4 ESE 20 26 11 14 1011.7 1011.5 0.0
26/04:30pm 27.3 28.1 21.8 72 3.7 ESE 20 26 11 14 1011.4 1011.2 0.0
26/04:00pm 27.8 28.5 21.6 69 4.2 ESE 20 30 11 16 1011.3 1011.1 0.0
26/03:30pm 28.3 29.0 21.6 67 4.5 ESE 20 30 11 16 1011.4 1011.2 0.0
26/03:00pm 28.4 29.0 21.4 66 4.7 ESE 20 24 11 13 1011.5 1011.3 0.0
26/02:30pm 28.1 28.3 21.4 67 4.5 SE 22 28 12 15 1011.5 1011.3 0.0
26/02:00pm 28.5 28.8 21.5 66 4.7 ESE 22 30 12 16 1011.8 1011.6 0.0
26/01:30pm 28.7 29.2 21.2 64 5.0 ESE 20 26 11 14 1012.1 1011.9 0.0
26/01:00pm 28.5 28.1 19.4 57 5.9 ESE 20 32 11 17 1012.2 1012.0 0.0
26/12:30pm 28.9 30.1 22.2 67 4.5 ESE 19 26 10 14 1012.6 1012.4 0.0
26/12:00pm 28.4 29.4 21.7 67 4.5 ESE 19 30 10 16 1013.2 1013.0 0.0
26/11:30am 28.1 28.6 20.9 65 4.8 ESE 19 26 10 14 1013.7 1013.5 0.0
26/11:00am 27.6 29.2 22.1 72 3.7 SE 17 20 9 11 1013.7 1013.5 0.0
26/10:30am 27.1 28.3 22.5 76 3.1 SE 20 26 11 14 1014.3 1014.1 0.0
26/10:16am 27.0 27.7 22.2 75 3.2 SE 22 28 12 15 1014.2 1014.0 0.0
26/10:00am 26.8 28.1 22.6 78 2.8 SE 20 26 11 14 1014.2 1014.0 0.0
26/09:30am 25.6 27.6 22.3 82 2.2 SSE 15 22 8 12 1014.5 1014.3 0.0
26/09:09am 25.6 28.3 22.9 85 1.8 SSE 13 20 7 11 1014.6 1014.4 0.0
26/09:00am 25.3 27.4 22.4 84 1.9 SSE 15 20 8 11 1014.7 1014.5 0.2
26/08:33am 25.2 27.7 23.1 88 1.4 S 15 20 8 11 1014.3 1014.1 0.2
26/08:30am 24.7 26.8 22.4 87 1.5 S 15 20 8 11 1014.3 1014.1 0.2
26/08:20am 24.3 26.4 22.4 89 1.3 SSE 15 22 8 12 1014.3 1014.1 0.2
26/08:00am 23.8 26.3 22.4 92 0.9 SSE 13 19 7 10 1014.3 1014.1 0.2
26/07:30am 23.3 25.8 22.5 95 0.5 SSE 13 19 7 10 1013.8 1013.6 0.2
26/07:00am 22.5 24.6 21.7 95 0.5 SSE 13 19 7 10 1013.9 1013.7 0.2
26/06:30am 22.4 25.3 21.7 96 0.5 S 9 13 5 7 1013.6 1013.4 0.2
26/06:00am 22.4 24.9 21.7 96 0.5 SSE 11 15 6 8 1013.3 1013.1 0.2
26/05:30am 22.1 24.4 21.3 95 0.5 SSE 11 15 6 8 1012.7 1012.5 0.2
26/05:00am 22.1 24.8 21.3 95 0.5 S 9 13 5 7 1012.5 1012.3 0.2
26/04:30am 22.1 24.4 21.3 95 0.5 SSE 11 17 6 9 1012.2 1012.0 0.2
26/04:00am 22.2 24.2 21.5 96 0.5 S 13 17 7 9 1011.9 1011.7 0.2
26/03:30am 22.2 24.2 21.5 96 0.5 SSE 13 17 7 9 1012.1 1011.9 0.2
26/03:00am 22.1 24.0 21.4 96 0.5 S 13 17 7 9 1012.2 1012.0 0.2
26/02:30am 22.1 24.0 21.4 96 0.5 S 13 20 7 11 1012.5 1012.3 0.2
26/02:00am 22.2 24.6 21.5 96 0.5 S 11 15 6 8 1012.6 1012.4 0.2
26/01:30am 22.3 24.7 21.5 95 0.5 SSE 11 17 6 9 1013.0 1012.8 0.2
26/01:00am 22.5 24.6 21.7 95 0.5 SSE 13 17 7 9 1013.5 1013.3 0.2
26/12:30am 22.7 25.2 21.7 94 0.7 SSE 11 17 6 9 1013.8 1013.6 0.2
26/12:13am 22.9 25.1 21.9 94 0.7 S 13 17 7 9 1014.0 1013.8 0.2
26/12:00am 23.1 25.3 21.9 93 0.8 SSE 13 19 7 10 1014.2 1014.0 0.2
 
Date/Time
EST
Temp
°C
App
Temp
°C
Dew
Point
°C
Rel
Hum
%
Delta-T
°C
Wind Press
QNH
hPa
Press
MSL
hPa
Rain since
9am
mm
Dir  Spd
km/h
Gust
km/h
Spd
kts
Gust
kts
25/11:56pm 23.2 25.5 22.0 93 0.8 SSE 13 19 7 10 1014.4 1014.2 0.2
25/11:30pm 23.3 25.7 21.6 90 1.1 SSE 11 17 6 9 1014.7 1014.5 0.0
25/11:00pm 23.4 25.8 21.5 89 1.3 SSE 11 17 6 9 1014.9 1014.7 0.0
25/10:30pm 23.5 25.2 21.6 89 1.3 SSE 15 22 8 12 1015.0 1014.8 0.0
25/10:00pm 23.6 26.2 21.9 90 1.1 S 11 17 6 9 1014.9 1014.7 0.0
25/09:30pm 23.4 25.9 21.8 91 1.1 SSE 11 17 6 9 1014.9 1014.7 0.0
25/09:00pm 23.5 25.8 22.1 92 0.9 SSE 13 17 7 9 1014.7 1014.5 0.0
25/08:30pm 23.5 25.3 21.9 91 1.1 SSE 15 19 8 10 1014.5 1014.3 0.0
25/08:00pm 23.9 26.1 21.8 88 1.4 SSE 13 20 7 11 1014.4 1014.2 0.0
25/07:30pm 23.9 26.4 21.8 88 1.4 SSE 11 15 6 8 1014.2 1014.0 0.0
25/07:00pm 23.9 25.7 21.8 88 1.4 SSE 15 20 8 11 1013.9 1013.7 0.0
25/06:30pm 24.1 26.3 21.8 87 1.5 SSE 13 17 7 9 1013.5 1013.3 0.0
25/06:00pm 24.5 26.3 21.8 85 1.8 SSE 15 22 8 12 1013.5 1013.3 0.0
25/05:30pm 24.7 25.6 22.0 85 1.8 SSE 20 30 11 16 1013.3 1013.1 0.0
25/05:00pm 24.6 25.6 21.7 84 1.9 SSE 19 28 10 15 1012.8 1012.6 0.0
25/04:30pm 28.2 27.8 21.7 68 4.4 ESE 26 32 14 17 1012.2 1012.0 0.0
25/04:00pm 28.9 27.6 20.6 61 5.5 ESE 28 37 15 20 1012.0 1011.8 0.0
25/03:30pm 29.2 28.3 20.6 59 5.7 ESE 26 33 14 18 1011.7 1011.5 0.0
25/03:00pm 29.2 28.8 21.7 64 5.0 ESE 26 33 14 18 1011.9 1011.7 0.0
25/02:30pm 29.4 30.1 21.6 63 5.2 ESE 20 32 11 17 1012.1 1011.9 0.0
25/02:00pm 29.0 28.6 21.7 64 4.9 ESE 26 37 14 20 1012.3 1012.1 0.0
25/01:30pm 29.4 28.6 20.8 60 5.7 E 26 33 14 18 1012.5 1012.3 0.0
25/01:00pm 28.5 27.5 21.3 65 4.8 ESE 28 39 15 21 1012.8 1012.6 0.0
25/12:30pm 28.9 27.5 21.9 66 4.7 ESE 32 41 17 22 1013.1 1012.9 0.0
25/12:00pm 29.1 28.9 22.8 69 4.3 E 28 37 15 20 1013.7 1013.5 0.0
25/11:30am 28.9 28.4 22.9 70 4.1 ESE 30 35 16 19 1013.9 1013.7 0.0
25/11:00am 28.5 27.9 20.5 62 5.3 SE 24 32 13 17 1014.4 1014.2 0.0
25/10:30am 28.2 28.0 20.5 63 5.1 SE 22 32 12 17 1014.6 1014.4 0.0
25/10:00am 28.1 28.1 21.6 68 4.3 SE 24 32 13 17 1014.8 1014.6 0.0
25/09:30am 27.1 27.4 22.3 75 3.2 SE 24 30 13 16 1014.8 1014.6 0.0
25/09:00am 26.8 27.9 22.4 77 3.0 SE 20 28 11 15 1014.8 1014.6 0.8
25/08:30am 25.0 26.9 22.7 87 1.6 SSE 17 22 9 12 1014.8 1014.6 0.8
25/08:01am 24.3 26.4 22.4 89 1.3 SSE 15 22 8 12 1014.5 1014.3 0.8
25/08:00am 24.3 26.4 22.4 89 1.3 SSE 15 22 8 12 1014.5 1014.3 0.8
25/07:38am 23.9 26.2 22.7 93 0.8 SSE 15 19 8 10 1014.2 1014.0 0.8
25/07:30am 23.5 25.6 22.5 94 0.7 SSE 15 22 8 12 1014.2 1014.0 0.8
25/07:27am 23.4 25.4 22.2 93 0.8 SSE 15 22 8 12 1014.1 1013.9 0.8
25/07:00am 23.2 26.1 22.5 96 0.5 SSE 11 15 6 8 1013.8 1013.6 0.8
25/06:46am 22.9 25.8 22.4 97 0.3 S 11 15 6 8 1013.7 1013.5 0.8
25/06:30am 22.7 25.1 22.2 97 0.3 SSE 13 19 7 10 1013.7 1013.5 0.8
25/06:24am 22.6 24.8 21.9 96 0.5 SSE 13 19 7 10 1013.6 1013.4 0.6
25/06:21am 22.6 25.2 21.9 96 0.5 SSE 11 17 6 9 1013.5 1013.3 0.6
25/06:05am 22.6 25.7 22.1 97 0.3 SE 9 13 5 7 1013.4 1013.2 0.6

Other Formats:

Comma delimited format used in spreadsheet applications
http://www.bom.gov.au/fwo/IDQ60801/IDQ60801.94387.axf

JavaScript Object Notation format (JSON) in row-major order
http://www.bom.gov.au/fwo/IDQ60801/IDQ60801.94387.json